Impacts METAR Board
IDs:

KPWG - Mc Gregor Executive, TX, US

Updated at: 0300 UTC 06 Dec 2019
Potential Impact None Slight Moderate High
Time 05/15Z 05/16Z 05/17Z 05/18Z 05/19Z 05/20Z 05/21Z 05/22Z 05/23Z 06/00Z 06/01Z 06/02Z 06/03Z
Temp56 65 68 70 72 73 73 71 69 67 67 67 66
Dewpt46 55 57 58 59 59 60 60 59 59 58 58 59
Altim30.03 30.04 30.02 29.98 29.94 29.92 29.90 29.90 29.90 29.90 29.91 29.92 29.94
VIS10 10 10 10 10 10 10 10 10 10 10 10 10
CIG-- -- -- -- -- -- -- -- -- -- -- -- --
CoverCLRCLRCLRCLRCLRCLRCLRCLRCLRCLRCLRCLRCLR
FltCatVFRVFRVFRVFRVFRVFRVFRVFRVFRVFRVFRVFRVFR
WX--------------------------
WDir160180180180180180170170170160170180190
WSpd8 14 17 20 15 15 15 17 15 13 13 14 11
WGst-- -- 25 24 25 19 21 -- -- -- -- 19 19
Raw hourly METARs
KPWG 051456Z AUTO 16008KT 10SM CLR 13/08 A3003 RMK AO2 SLP165 T01330078 50007 $
KPWG 051556Z AUTO 18014KT 10SM CLR 18/13 A3004 RMK AO2 SLP169 T01830128 $
KPWG 051656Z AUTO 18017G25KT 10SM CLR 20/14 A3002 RMK AO2 SLP164 T02000139 $
KPWG 051756Z AUTO 18020G24KT 10SM CLR 21/14 A2998 RMK AO2 SLP149 T02110144 10211 20083 58017 $
KPWG 051856Z AUTO 18015G25KT 10SM CLR 22/15 A2994 RMK AO2 PK WND 17027/1808 SLP135 T02220150 $
KPWG 051956Z AUTO 18015G19KT 10SM CLR 23/15 A2992 RMK AO2 SLP127 T02280150 $
KPWG 052056Z AUTO 17015G21KT 10SM CLR 23/16 A2990 RMK AO2 SLP122 T02280156 56026 $
KPWG 052156Z AUTO 17017KT 10SM CLR 22/16 A2990 RMK AO2 SLP122 T02170156 $
KPWG 052256Z AUTO 17015KT 10SM CLR 21/15 A2990 RMK AO2 SLP120 T02060150 $
KPWG 052356Z AUTO 16013KT 10SM CLR 19/15 A2990 RMK AO2 SLP121 T01940150 10233 20194 56001 $
KPWG 060056Z AUTO 17013KT 10SM CLR 19/14 A2991 RMK AO2 SLP124 T01940144 $
KPWG 060156Z AUTO 18014G19KT 10SM CLR 19/14 A2992 RMK AO2 SLP127 T01940144 $
KPWG 060256Z AUTO 19011G19KT 10SM CLR 19/15 A2994 RMK AO2 SLP135 T01890150 53015 $